Time;durP1;ratioP1;P1;durP2;ratioP2;P2;SDS_P1;SDS_P2;PMS_P1;PMS_P2;Temp;Humidity;BMP_temperature;BMP_pressure;BME280_temperature;BME280_humidity;BME280_pressure;Samples;Min_cycle;Max_cycle;Signal;HPM_P1;HPM_P2
2021/06/06 00:00:59;;;;;;;4.25;3.92;;;;;;;;;;5082774;28;20714;-79
2021/06/06 00:03:46;;;;;;;4.68;4.20;;;;;;;;;;5084389;28;20196;-78
2021/06/06 00:06:15;;;;;;;4.65;4.35;;;;;;;;;;5093969;28;20192;-79
2021/06/06 00:08:41;;;;;;;4.03;3.63;;;;;;;;;;5085084;28;20211;-79
2021/06/06 00:11:18;;;;;;;4.53;3.75;;;;;;;;;;5084159;28;20212;-79
2021/06/06 00:13:44;;;;;;;11.18;4.20;;;;;;;;;;5081512;28;20180;-79
2021/06/06 00:16:13;;;;;;;4.72;4.05;;;;;;;;;;5082600;28;20180;-78
2021/06/06 00:18:40;;;;;;;5.63;4.00;;;;;;;;;;5084211;28;20193;-79
2021/06/06 00:21:06;;;;;;;4.00;3.60;;;;;;;;;;5082165;28;20181;-78
2021/06/06 00:23:33;;;;;;;3.97;3.67;;;;;;;;;;5086390;28;20230;-79
2021/06/06 00:25:59;;;;;;;4.68;4.28;;;;;;;;;;5084200;28;20187;-79
2021/06/06 00:28:26;;;;;;;4.20;3.80;;;;;;;;;;5081411;28;20204;-79
2021/06/06 00:30:52;;;;;;;5.50;3.97;;;;;;;;;;5080299;28;20184;-79
2021/06/06 00:33:18;;;;;;;3.60;3.30;;;;;;;;;;5082020;28;20253;-79
2021/06/06 00:35:44;;;;;;;7.35;4.40;;;;;;;;;;5084863;28;20510;-79
2021/06/06 00:38:10;;;;;;;4.15;3.85;;;;;;;;;;5084020;28;20227;-79
2021/06/06 00:40:36;;;;;;;4.60;4.15;;;;;;;;;;5081013;28;20213;-79
2021/06/06 00:43:02;;;;;;;3.97;3.40;;;;;;;;;;5081110;28;20181;-79
2021/06/06 00:45:30;;;;;;;6.72;4.40;;;;;;;;;;5083544;28;20183;-79
2021/06/06 00:47:56;;;;;;;6.80;3.95;;;;;;;;;;5083870;28;20258;-79
2021/06/06 00:50:26;;;;;;;6.47;4.15;;;;;;;;;;5094699;28;20172;-79
2021/06/06 00:52:54;;;;;;;4.50;3.45;;;;;;;;;;5082287;28;20191;-79
2021/06/06 00:55:20;;;;;;;4.60;3.45;;;;;;;;;;5081489;28;20235;-79
2021/06/06 00:57:46;;;;;;;4.72;3.72;;;;;;;;;;5081572;28;20271;-79
2021/06/06 01:00:13;;;;;;;3.50;3.20;;;;;;;;;;5082405;28;20208;-79
2021/06/06 01:02:40;;;;;;;5.95;3.20;;;;;;;;;;5085432;28;20530;-79
2021/06/06 01:05:33;;;;;;;3.13;2.92;;;;;;;;;;5084036;28;20571;-79
2021/06/06 01:08:00;;;;;;;6.53;4.10;;;;;;;;;;5080844;28;20216;-79
2021/06/06 01:10:26;;;;;;;5.65;3.08;;;;;;;;;;5081142;28;20191;-79
2021/06/06 01:12:56;;;;;;;4.00;3.70;;;;;;;;;;5081865;28;20204;-79
2021/06/06 01:15:28;;;;;;;3.75;3.15;;;;;;;;;;5081645;28;20177;-79
2021/06/06 01:18:01;;;;;;;4.55;2.88;;;;;;;;;;5083828;28;20716;-79
2021/06/06 01:20:29;;;;;;;3.88;3.47;;;;;;;;;;5084386;28;20185;-79
2021/06/06 01:23:27;;;;;;;4.78;2.67;;;;;;;;;;5080849;28;20188;-79
2021/06/06 01:25:57;;;;;;;3.20;2.65;;;;;;;;;;5080492;28;20184;-78
2021/06/06 01:28:27;;;;;;;2.80;2.60;;;;;;;;;;5081361;28;20206;-79
2021/06/06 01:30:55;;;;;;;4.75;3.50;;;;;;;;;;5081040;28;20203;-78
2021/06/06 01:33:34;;;;;;;3.78;2.92;;;;;;;;;;5081129;28;20806;-78
2021/06/06 01:36:02;;;;;;;2.85;2.60;;;;;;;;;;5081377;28;20189;-79
2021/06/06 01:38:40;;;;;;;3.28;2.97;;;;;;;;;;5084510;28;20207;-78
2021/06/06 01:41:08;;;;;;;4.68;3.30;;;;;;;;;;5082662;28;20225;-79
2021/06/06 01:43:36;;;;;;;4.32;3.42;;;;;;;;;;5081127;28;20238;-79
2021/06/06 01:46:04;;;;;;;3.78;3.30;;;;;;;;;;5081216;28;20604;-78
2021/06/06 01:48:31;;;;;;;3.53;3.22;;;;;;;;;;5083016;28;20234;-78
2021/06/06 01:50:59;;;;;;;4.30;3.45;;;;;;;;;;5080211;28;20180;-78
2021/06/06 01:53:26;;;;;;;3.20;2.90;;;;;;;;;;5093970;28;20176;-78
2021/06/06 01:55:54;;;;;;;3.00;2.50;;;;;;;;;;5080259;28;20188;-78
2021/06/06 01:58:20;;;;;;;3.00;2.70;;;;;;;;;;5080833;28;20191;-78
2021/06/06 02:00:49;;;;;;;4.88;3.10;;;;;;;;;;5080985;28;20240;-79
2021/06/06 02:03:15;;;;;;;5.78;3.10;;;;;;;;;;5080179;28;20426;-79
2021/06/06 02:05:42;;;;;;;4.70;3.25;;;;;;;;;;5081884;28;20185;-79
2021/06/06 02:08:11;;;;;;;3.20;3.00;;;;;;;;;;5081710;28;20220;-79
2021/06/06 02:10:43;;;;;;;7.50;3.38;;;;;;;;;;5078675;28;20215;-79
2021/06/06 02:13:16;;;;;;;3.50;3.20;;;;;;;;;;5079552;28;20252;-78
2021/06/06 02:15:42;;;;;;;2.85;2.65;;;;;;;;;;5069760;28;20638;-78
2021/06/06 02:18:09;;;;;;;3.08;2.60;;;;;;;;;;5081683;28;20672;-78
2021/06/06 02:20:40;;;;;;;2.92;2.63;;;;;;;;;;5081927;28;20180;-78
2021/06/06 02:23:06;;;;;;;3.72;3.20;;;;;;;;;;5080638;28;20169;-78
2021/06/06 02:25:32;;;;;;;2.95;2.75;;;;;;;;;;5080288;28;20215;-78
2021/06/06 02:28:07;;;;;;;2.70;2.50;;;;;;;;;;5080354;28;20204;-78
2021/06/06 02:30:37;;;;;;;2.60;2.38;;;;;;;;;;5084483;28;20284;-79
2021/06/06 02:33:22;;;;;;;2.75;2.55;;;;;;;;;;5075842;28;20187;-79
2021/06/06 02:35:51;;;;;;;2.60;2.40;;;;;;;;;;5079869;28;20181;-79
2021/06/06 02:38:20;;;;;;;6.13;2.35;;;;;;;;;;5081126;28;20173;-79
2021/06/06 02:40:51;;;;;;;3.25;2.85;;;;;;;;;;5079160;28;20316;-79
2021/06/06 02:43:20;;;;;;;3.55;3.25;;;;;;;;;;5079134;28;20176;-78
2021/06/06 02:45:47;;;;;;;2.83;2.63;;;;;;;;;;5078387;28;20237;-78
2021/06/06 02:48:16;;;;;;;3.25;2.95;;;;;;;;;;5079870;28;20216;-78
2021/06/06 02:50:43;;;;;;;4.88;2.58;;;;;;;;;;5081621;28;20226;-79
2021/06/06 02:53:17;;;;;;;3.25;2.78;;;;;;;;;;5081632;28;20179;-79
2021/06/06 02:55:45;;;;;;;3.80;2.60;;;;;;;;;;5077810;28;20210;-79
2021/06/06 02:58:16;;;;;;;2.80;2.60;;;;;;;;;;5081285;28;20181;-79
2021/06/06 03:00:44;;;;;;;2.33;2.13;;;;;;;;;;5079246;28;20249;-79
2021/06/06 03:03:12;;;;;;;3.00;2.40;;;;;;;;;;5080242;28;20196;-79
2021/06/06 03:05:38;;;;;;;3.75;2.78;;;;;;;;;;5080115;28;20184;-78
2021/06/06 03:08:06;;;;;;;3.20;2.75;;;;;;;;;;5083417;28;20199;-79
2021/06/06 03:10:33;;;;;;;2.40;2.20;;;;;;;;;;5079861;28;20173;-79
2021/06/06 03:13:02;;;;;;;3.17;2.25;;;;;;;;;;5079752;28;20542;-79
2021/06/06 03:15:31;;;;;;;3.03;2.70;;;;;;;;;;5077471;28;20211;-79
2021/06/06 03:17:57;;;;;;;2.95;2.13;;;;;;;;;;5080111;28;20188;-78
2021/06/06 03:20:33;;;;;;;3.15;2.78;;;;;;;;;;5084225;28;20184;-79
2021/06/06 03:23:00;;;;;;;3.50;2.45;;;;;;;;;;5083986;28;20180;-79
2021/06/06 03:25:47;;;;;;;2.58;2.35;;;;;;;;;;5083417;28;20241;-78
2021/06/06 03:28:14;;;;;;;2.72;2.33;;;;;;;;;;5083903;28;20241;-79
2021/06/06 03:30:40;;;;;;;2.88;2.40;;;;;;;;;;5084912;28;20184;-79
2021/06/06 03:33:09;;;;;;;3.95;2.70;;;;;;;;;;5083605;28;20176;-78
2021/06/06 03:35:36;;;;;;;6.78;2.53;;;;;;;;;;5086857;28;20172;-78
2021/06/06 03:38:03;;;;;;;2.45;2.25;;;;;;;;;;5084603;28;20179;-79
2021/06/06 03:40:30;;;;;;;3.60;2.70;;;;;;;;;;5082183;28;20184;-79
2021/06/06 03:42:56;;;;;;;2.20;2.10;;;;;;;;;;5083984;28;20188;-79
2021/06/06 03:45:22;;;;;;;2.38;2.20;;;;;;;;;;5083199;28;20185;-79
2021/06/06 03:47:48;;;;;;;3.03;2.67;;;;;;;;;;5084869;28;20245;-78
2021/06/06 03:50:15;;;;;;;2.87;2.67;;;;;;;;;;5084291;28;20184;-79
2021/06/06 03:52:41;;;;;;;4.38;2.67;;;;;;;;;;5083061;28;20426;-79
2021/06/06 03:55:08;;;;;;;3.00;2.70;;;;;;;;;;5082524;28;20191;-79
2021/06/06 03:57:34;;;;;;;3.78;2.45;;;;;;;;;;5082928;28;20187;-78
2021/06/06 04:00:01;;;;;;;4.22;2.83;;;;;;;;;;5083556;28;20181;-79
2021/06/06 04:02:27;;;;;;;2.92;2.30;;;;;;;;;;5096352;28;20161;-79
2021/06/06 04:04:53;;;;;;;3.38;2.40;;;;;;;;;;5082806;28;20240;-79
2021/06/06 04:07:19;;;;;;;2.17;2.00;;;;;;;;;;5081802;28;20203;-78
2021/06/06 04:09:45;;;;;;;5.18;2.22;;;;;;;;;;5082490;28;20287;-78
2021/06/06 04:12:11;;;;;;;2.70;2.50;;;;;;;;;;5082851;28;20209;-79
2021/06/06 04:14:37;;;;;;;2.35;2.15;;;;;;;;;;5086728;28;20414;-78
2021/06/06 04:17:03;;;;;;;2.83;2.50;;;;;;;;;;5084508;28;20164;-79
2021/06/06 04:19:29;;;;;;;2.40;2.10;;;;;;;;;;5082678;28;20192;-78
2021/06/06 04:21:55;;;;;;;2.70;2.17;;;;;;;;;;5081481;28;20627;-78
2021/06/06 04:24:21;;;;;;;2.92;2.55;;;;;;;;;;5083615;28;20439;-78
2021/06/06 04:26:48;;;;;;;2.55;2.22;;;;;;;;;;5083729;28;20178;-78
2021/06/06 04:29:14;;;;;;;2.72;2.53;;;;;;;;;;5099798;28;20200;-79
2021/06/06 04:31:40;;;;;;;2.08;1.92;;;;;;;;;;5080221;28;20184;-79
2021/06/06 04:34:06;;;;;;;4.15;2.13;;;;;;;;;;5081759;28;20256;-79
2021/06/06 04:36:32;;;;;;;4.32;2.40;;;;;;;;;;5083736;28;20184;-79
2021/06/06 04:38:58;;;;;;;2.67;2.47;;;;;;;;;;5082351;28;20181;-78
2021/06/06 04:41:24;;;;;;;2.25;2.05;;;;;;;;;;5096893;28;20226;-79
2021/06/06 04:43:50;;;;;;;2.38;2.17;;;;;;;;;;5082458;28;20188;-79
2021/06/06 04:46:16;;;;;;;4.60;2.37;;;;;;;;;;5081361;28;20319;-78
2021/06/06 04:48:44;;;;;;;3.45;2.30;;;;;;;;;;5083601;28;20979;-79
2021/06/06 04:51:11;;;;;;;2.95;2.47;;;;;;;;;;5081294;28;20254;-78
2021/06/06 04:53:37;;;;;;;2.75;2.55;;;;;;;;;;5084582;28;20490;-79
2021/06/06 04:56:04;;;;;;;3.63;2.93;;;;;;;;;;5082543;28;20468;-78
2021/06/06 04:58:31;;;;;;;3.33;3.03;;;;;;;;;;5082236;28;20430;-78
2021/06/06 05:00:57;;;;;;;2.70;2.50;;;;;;;;;;5080142;28;20207;-78
2021/06/06 05:03:23;;;;;;;3.00;2.60;;;;;;;;;;5082434;28;20203;-79
2021/06/06 05:05:50;;;;;;;2.97;2.47;;;;;;;;;;5081989;28;20204;-78
2021/06/06 05:08:17;;;;;;;5.47;3.33;;;;;;;;;;5083550;28;20199;-79
2021/06/06 05:10:44;;;;;;;3.15;2.85;;;;;;;;;;5081586;28;20184;-79
2021/06/06 05:13:11;;;;;;;3.10;2.25;;;;;;;;;;5082504;28;20180;-79
2021/06/06 05:15:37;;;;;;;2.63;2.40;;;;;;;;;;5080903;28;20545;-79
2021/06/06 05:18:04;;;;;;;2.47;2.17;;;;;;;;;;5082395;28;20192;-78
2021/06/06 05:20:35;;;;;;;3.50;2.38;;;;;;;;;;5096824;28;20176;-78
2021/06/06 05:23:01;;;;;;;3.15;2.10;;;;;;;;;;5084268;28;20184;-80
2021/06/06 05:25:28;;;;;;;2.80;2.30;;;;;;;;;;5079869;28;20195;-80
2021/06/06 05:27:54;;;;;;;2.50;2.00;;;;;;;;;;5081156;28;20903;-79
2021/06/06 05:30:23;;;;;;;5.55;2.67;;;;;;;;;;5080305;28;20305;-79
2021/06/06 05:32:49;;;;;;;2.95;2.25;;;;;;;;;;5082119;28;20263;-80
2021/06/06 05:35:15;;;;;;;2.65;2.45;;;;;;;;;;5083014;28;20169;-80
2021/06/06 05:37:41;;;;;;;2.72;2.53;;;;;;;;;;5082730;28;20273;-80
2021/06/06 05:40:08;;;;;;;2.95;1.80;;;;;;;;;;5079547;28;20283;-80
2021/06/06 05:42:34;;;;;;;2.10;1.90;;;;;;;;;;5080982;28;20176;-81
2021/06/06 05:45:00;;;;;;;3.65;1.90;;;;;;;;;;5081639;28;20192;-80
2021/06/06 05:47:26;;;;;;;3.60;1.90;;;;;;;;;;5098848;28;20225;-81
2021/06/06 05:49:52;;;;;;;2.28;2.08;;;;;;;;;;5082410;28;20272;-81
2021/06/06 05:52:18;;;;;;;2.20;1.87;;;;;;;;;;5079370;28;20187;-81
2021/06/06 05:54:44;;;;;;;2.85;1.85;;;;;;;;;;5081083;28;20438;-80
2021/06/06 05:57:10;;;;;;;4.20;2.60;;;;;;;;;;5081553;28;20407;-80
2021/06/06 05:59:36;;;;;;;3.80;2.30;;;;;;;;;;5083049;28;20225;-79
2021/06/06 06:02:02;;;;;;;3.95;1.90;;;;;;;;;;5096801;28;20271;-81
2021/06/06 06:04:28;;;;;;;3.92;2.75;;;;;;;;;;5081049;28;20208;-79
2021/06/06 06:06:54;;;;;;;2.30;1.77;;;;;;;;;;5080900;28;20254;-81
2021/06/06 06:09:20;;;;;;;4.15;1.40;;;;;;;;;;5081688;28;20454;-80
2021/06/06 06:11:46;;;;;;;1.83;1.50;;;;;;;;;;5081794;28;20234;-81
2021/06/06 06:14:12;;;;;;;1.55;1.40;;;;;;;;;;5081614;28;20626;-81
2021/06/06 06:16:39;;;;;;;2.33;1.87;;;;;;;;;;5079128;28;20180;-81
2021/06/06 06:19:06;;;;;;;3.17;1.85;;;;;;;;;;5078954;28;20436;-79
2021/06/06 06:21:33;;;;;;;1.60;1.50;;;;;;;;;;5079861;28;20599;-80
2021/06/06 06:23:59;;;;;;;3.80;1.50;;;;;;;;;;5081087;28;20188;-80
2021/06/06 06:26:26;;;;;;;1.70;1.25;;;;;;;;;;5093202;28;20179;-81
2021/06/06 06:28:52;;;;;;;2.25;1.63;;;;;;;;;;5080858;28;20204;-80
2021/06/06 06:31:18;;;;;;;5.43;2.08;;;;;;;;;;5078513;28;20190;-81
2021/06/06 06:33:45;;;;;;;3.15;1.65;;;;;;;;;;5078341;28;20182;-81
2021/06/06 06:36:11;;;;;;;3.35;3.05;;;;;;;;;;5078165;28;20188;-80
2021/06/06 06:38:37;;;;;;;2.70;2.30;;;;;;;;;;5082378;28;20175;-81
2021/06/06 06:41:03;;;;;;;2.92;1.90;;;;;;;;;;5080057;28;20667;-80
2021/06/06 06:43:29;;;;;;;2.92;1.40;;;;;;;;;;5079764;28;20183;-79
2021/06/06 06:45:55;;;;;;;2.13;1.93;;;;;;;;;;5078270;28;20199;-80
2021/06/06 06:48:23;;;;;;;4.05;1.70;;;;;;;;;;5079411;28;20476;-80
2021/06/06 06:50:50;;;;;;;2.50;1.63;;;;;;;;;;5079381;28;20281;-80
2021/06/06 06:53:16;;;;;;;6.07;2.42;;;;;;;;;;5097850;28;20267;-82
2021/06/06 06:55:42;;;;;;;3.25;1.63;;;;;;;;;;5075967;28;20544;-81
2021/06/06 06:58:09;;;;;;;1.95;1.40;;;;;;;;;;5074651;28;20181;-78
2021/06/06 07:00:38;;;;;;;3.40;1.70;;;;;;;;;;5072728;28;20213;-78
2021/06/06 07:03:04;;;;;;;1.88;1.38;;;;;;;;;;5075247;28;20276;-77
2021/06/06 07:05:30;;;;;;;1.50;1.40;;;;;;;;;;5089761;28;20181;-77
2021/06/06 07:07:56;;;;;;;3.03;1.85;;;;;;;;;;5079678;28;20208;-77
2021/06/06 07:10:23;;;;;;;4.38;1.70;;;;;;;;;;5079729;28;20180;-78
2021/06/06 07:12:49;;;;;;;2.40;1.70;;;;;;;;;;5077098;28;20195;-78
2021/06/06 07:15:17;;;;;;;1.42;1.33;;;;;;;;;;5080776;28;20184;-79
2021/06/06 07:17:43;;;;;;;1.63;1.23;;;;;;;;;;5080216;28;20183;-78
2021/06/06 07:20:11;;;;;;;1.65;1.55;;;;;;;;;;5081921;28;20207;-78
2021/06/06 07:22:37;;;;;;;4.40;1.55;;;;;;;;;;5081227;28;20191;-78
2021/06/06 07:25:04;;;;;;;3.65;1.05;;;;;;;;;;5078974;28;20176;-77
2021/06/06 07:27:32;;;;;;;2.17;1.20;;;;;;;;;;5080494;28;20180;-77
2021/06/06 07:29:58;;;;;;;1.60;0.93;;;;;;;;;;5079911;28;20191;-77
2021/06/06 07:32:24;;;;;;;1.30;1.20;;;;;;;;;;5080387;28;20180;-77
2021/06/06 07:34:52;;;;;;;1.17;1.00;;;;;;;;;;5073272;28;20185;-77
2021/06/06 07:37:18;;;;;;;1.83;1.30;;;;;;;;;;5079700;28;20260;-77
2021/06/06 07:39:44;;;;;;;1.75;1.38;;;;;;;;;;5079205;28;20177;-78
2021/06/06 07:42:14;;;;;;;1.00;0.90;;;;;;;;;;5080362;28;20214;-77
2021/06/06 07:44:41;;;;;;;4.30;1.33;;;;;;;;;;5081563;28;20184;-77
2021/06/06 07:47:08;;;;;;;1.48;1.20;;;;;;;;;;5080772;28;20216;-79
2021/06/06 07:49:34;;;;;;;2.08;1.02;;;;;;;;;;5080415;28;20200;-79
2021/06/06 07:52:00;;;;;;;1.20;1.10;;;;;;;;;;5080408;28;20271;-78
2021/06/06 07:54:27;;;;;;;1.60;1.20;;;;;;;;;;5077425;28;20234;-77
2021/06/06 07:56:53;;;;;;;9.25;5.95;;;;;;;;;;5080867;28;20176;-78
2021/06/06 07:59:19;;;;;;;2.20;1.52;;;;;;;;;;5081901;28;20164;-79
2021/06/06 08:01:47;;;;;;;2.40;1.80;;;;;;;;;;5077079;28;20188;-78
2021/06/06 08:04:13;;;;;;;1.90;1.80;;;;;;;;;;5073409;28;20924;-78
2021/06/06 08:06:39;;;;;;;1.90;1.40;;;;;;;;;;5079361;28;20219;-78
2021/06/06 08:09:06;;;;;;;1.70;1.45;;;;;;;;;;5082364;28;20200;-78
2021/06/06 08:11:32;;;;;;;3.00;1.92;;;;;;;;;;5086549;28;20185;-76
2021/06/06 08:13:58;;;;;;;1.40;1.30;;;;;;;;;;5082962;28;20191;-80
2021/06/06 08:16:24;;;;;;;5.13;1.60;;;;;;;;;;5082597;28;20185;-79
2021/06/06 08:18:50;;;;;;;3.27;1.47;;;;;;;;;;5078939;28;20438;-79
2021/06/06 08:21:18;;;;;;;2.03;1.40;;;;;;;;;;5082573;28;20446;-77
2021/06/06 08:23:44;;;;;;;2.10;1.73;;;;;;;;;;5083953;28;20569;-77
2021/06/06 08:26:12;;;;;;;3.20;2.15;;;;;;;;;;5096843;28;20168;-77
2021/06/06 08:28:38;;;;;;;2.60;2.00;;;;;;;;;;5082060;28;20204;-77
2021/06/06 08:31:06;;;;;;;4.32;1.60;;;;;;;;;;5075061;28;20185;-76
2021/06/06 08:33:33;;;;;;;3.08;1.70;;;;;;;;;;5074331;28;20180;-77
2021/06/06 08:36:03;;;;;;;2.60;1.40;;;;;;;;;;5071932;28;20192;-76
2021/06/06 08:38:31;;;;;;;2.75;1.60;;;;;;;;;;5083402;28;20185;-77
2021/06/06 08:40:59;;;;;;;1.45;1.35;;;;;;;;;;5081797;28;20185;-77
2021/06/06 08:43:32;;;;;;;1.40;1.20;;;;;;;;;;5082262;28;20203;-76
2021/06/06 08:45:59;;;;;;;3.55;1.83;;;;;;;;;;5081893;28;20183;-77
2021/06/06 08:48:28;;;;;;;1.95;1.35;;;;;;;;;;5082014;28;22729;-77
2021/06/06 08:51:23;;;;;;;1.90;1.35;;;;;;;;;;5083771;28;20184;-77
2021/06/06 08:54:02;;;;;;;2.80;1.92;;;;;;;;;;5044715;28;20185;-77
2021/06/06 08:56:32;;;;;;;1.63;1.52;;;;;;;;;;5057189;28;20267;-76
2021/06/06 08:59:01;;;;;;;3.25;1.70;;;;;;;;;;5044972;28;20706;-77
2021/06/06 09:01:49;;;;;;;2.10;1.30;;;;;;;;;;5053454;28;20186;-77
2021/06/06 09:04:20;;;;;;;5.03;1.50;;;;;;;;;;5054231;28;20251;-77
2021/06/06 09:06:46;;;;;;;11.25;8.75;;;;;;;;;;5056458;28;20185;-76
2021/06/06 09:09:14;;;;;;;5.33;2.97;;;;;;;;;;5040148;28;20211;-77
2021/06/06 09:11:40;;;;;;;2.17;1.65;;;;;;;;;;5058467;28;20424;-76
2021/06/06 09:14:07;;;;;;;1.52;1.20;;;;;;;;;;5055147;28;20177;-76
2021/06/06 09:16:37;;;;;;;2.13;1.27;;;;;;;;;;5058926;28;20208;-76
2021/06/06 09:19:08;;;;;;;1.67;1.20;;;;;;;;;;5054989;28;20192;-77
2021/06/06 09:21:34;;;;;;;2.03;1.50;;;;;;;;;;5057521;28;20220;-77
2021/06/06 09:24:05;;;;;;;3.50;1.35;;;;;;;;;;5054303;28;20651;-77
2021/06/06 09:26:31;;;;;;;1.85;1.75;;;;;;;;;;5053313;28;20211;-77
2021/06/06 09:29:16;;;;;;;2.45;1.70;;;;;;;;;;5044922;28;20210;-76
2021/06/06 09:31:43;;;;;;;1.50;1.40;;;;;;;;;;5081473;28;20192;-78
2021/06/06 09:34:10;;;;;;;1.40;1.30;;;;;;;;;;5080234;28;20190;-76
2021/06/06 09:36:40;;;;;;;1.92;1.50;;;;;;;;;;5080779;28;20180;-76
2021/06/06 09:39:23;;;;;;;2.35;1.60;;;;;;;;;;5076449;28;20259;-77
2021/06/06 09:41:54;;;;;;;1.50;1.40;;;;;;;;;;5083796;28;20189;-77
2021/06/06 09:44:31;;;;;;;6.35;2.22;;;;;;;;;;5083833;28;20191;-77
2021/06/06 09:47:07;;;;;;;1.98;1.55;;;;;;;;;;5081901;28;20280;-77
2021/06/06 09:49:36;;;;;;;4.70;1.88;;;;;;;;;;5078511;28;20200;-77
2021/06/06 09:52:16;;;;;;;3.08;1.73;;;;;;;;;;5081195;28;20210;-76
2021/06/06 09:54:45;;;;;;;1.88;1.70;;;;;;;;;;5081475;28;20574;-79
2021/06/06 09:57:17;;;;;;;2.20;1.73;;;;;;;;;;5081099;28;20190;-77
2021/06/06 09:59:43;;;;;;;1.60;1.50;;;;;;;;;;5082838;28;20183;-77
2021/06/06 10:02:29;;;;;;;1.75;1.45;;;;;;;;;;5083120;28;20211;-77
2021/06/06 10:05:05;;;;;;;1.60;1.50;;;;;;;;;;5079062;28;20186;-77
2021/06/06 10:07:33;;;;;;;2.05;1.88;;;;;;;;;;5081005;28;20193;-78
2021/06/06 10:10:01;;;;;;;2.10;1.70;;;;;;;;;;5080042;28;20200;-77
2021/06/06 10:12:39;;;;;;;2.65;1.80;;;;;;;;;;5080826;28;20172;-76
2021/06/06 10:15:18;;;;;;;2.27;1.83;;;;;;;;;;5075993;28;20175;-77
2021/06/06 10:17:50;;;;;;;2.28;1.83;;;;;;;;;;5080699;28;20388;-77
2021/06/06 10:20:19;;;;;;;3.05;1.70;;;;;;;;;;5089721;28;20239;-76
2021/06/06 10:23:05;;;;;;;2.35;1.85;;;;;;;;;;5095794;28;20199;-76
2021/06/06 10:25:40;;;;;;;4.43;1.63;;;;;;;;;;5081149;28;20231;-77
2021/06/06 10:28:07;;;;;;;1.88;1.65;;;;;;;;;;5073997;28;20203;-76
2021/06/06 10:30:36;;;;;;;3.33;1.85;;;;;;;;;;5074517;28;20289;-76
2021/06/06 10:33:26;;;;;;;2.37;2.00;;;;;;;;;;5080278;28;20226;-78
2021/06/06 10:35:52;;;;;;;2.10;1.50;;;;;;;;;;5074717;28;20818;-77
2021/06/06 10:38:19;;;;;;;3.58;1.90;;;;;;;;;;5095652;28;20188;-77
2021/06/06 10:40:49;;;;;;;2.03;1.70;;;;;;;;;;5081539;28;20183;-76
2021/06/06 10:43:21;;;;;;;26.30;20.70;;;;;;;;;;5077460;28;20758;-76
2021/06/06 10:45:50;;;;;;;2.80;1.90;;;;;;;;;;5072026;28;20474;-76
2021/06/06 10:48:25;;;;;;;6.27;5.40;;;;;;;;;;5076965;28;20987;-78
2021/06/06 10:50:53;;;;;;;19.40;14.43;;;;;;;;;;5075185;28;20810;-76
2021/06/06 10:53:19;;;;;;;2.93;2.37;;;;;;;;;;5082269;28;20941;-77
2021/06/06 10:55:49;;;;;;;1.73;1.60;;;;;;;;;;5078798;28;20435;-78
2021/06/06 10:58:18;;;;;;;2.40;1.83;;;;;;;;;;5079083;28;20461;-79
2021/06/06 11:00:55;;;;;;;4.77;1.70;;;;;;;;;;5084533;28;20443;-77
2021/06/06 11:03:24;;;;;;;1.93;1.37;;;;;;;;;;5081457;28;20437;-77
2021/06/06 11:05:52;;;;;;;2.23;2.03;;;;;;;;;;5081310;28;20426;-77
2021/06/06 11:08:20;;;;;;;2.30;2.00;;;;;;;;;;5077896;28;20461;-77
2021/06/06 11:10:46;;;;;;;2.80;1.67;;;;;;;;;;5077755;28;20509;-76
2021/06/06 11:13:29;;;;;;;6.07;5.57;;;;;;;;;;5075327;28;20434;-76
2021/06/06 11:16:03;;;;;;;2.10;1.93;;;;;;;;;;5080518;28;20444;-77
2021/06/06 11:18:29;;;;;;;1.83;1.73;;;;;;;;;;5077462;28;20409;-77
2021/06/06 11:20:55;;;;;;;2.10;1.90;;;;;;;;;;5079006;28;20421;-77
2021/06/06 11:23:40;;;;;;;2.70;1.70;;;;;;;;;;5082501;28;20452;-76
2021/06/06 11:26:19;;;;;;;9.57;8.77;;;;;;;;;;5080628;28;20393;-77
2021/06/06 11:28:46;;;;;;;2.10;1.90;;;;;;;;;;5078737;28;20468;-77
2021/06/06 11:31:24;;;;;;;2.33;1.90;;;;;;;;;;5078266;28;20438;-76
2021/06/06 11:33:56;;;;;;;7.13;3.43;;;;;;;;;;5075551;28;20413;-78
2021/06/06 11:36:40;;;;;;;2.40;2.20;;;;;;;;;;5072803;28;20434;-77
2021/06/06 11:39:15;;;;;;;2.10;2.00;;;;;;;;;;5074542;28;20487;-77
2021/06/06 11:41:43;;;;;;;4.17;2.10;;;;;;;;;;5084558;28;20414;-76
2021/06/06 11:44:28;;;;;;;2.27;2.00;;;;;;;;;;5086514;28;20399;-76
2021/06/06 11:47:06;;;;;;;4.37;3.97;;;;;;;;;;5082554;28;20517;-76
2021/06/06 11:49:51;;;;;;;5.50;5.00;;;;;;;;;;5082989;28;20468;-76
2021/06/06 11:52:26;;;;;;;1.60;1.50;;;;;;;;;;5082251;28;20530;-76
2021/06/06 11:54:58;;;;;;;40.10;31.53;;;;;;;;;;5083033;28;20417;-77
2021/06/06 11:57:26;;;;;;;7.80;6.90;;;;;;;;;;5083638;28;20540;-77
2021/06/06 11:59:58;;;;;;;65.93;54.47;;;;;;;;;;5084193;28;20479;-76
2021/06/06 12:02:29;;;;;;;2.13;1.93;;;;;;;;;;5100888;28;20446;-76
2021/06/06 12:04:57;;;;;;;2.60;2.40;;;;;;;;;;5082365;28;20441;-77
2021/06/06 12:07:28;;;;;;;3.90;3.03;;;;;;;;;;5081241;28;20439;-77
2021/06/06 12:09:56;;;;;;;13.47;11.83;;;;;;;;;;5071387;28;20572;-77
2021/06/06 12:12:27;;;;;;;151.53;119.90;;;;;;;;;;5081008;28;20506;-77
2021/06/06 12:15:12;;;;;;;130.20;110.80;;;;;;;;;;5082531;28;20429;-74
2021/06/06 12:17:39;;;;;;;1.70;1.60;;;;;;;;;;5097141;28;20413;-75
2021/06/06 12:20:12;;;;;;;2.73;1.50;;;;;;;;;;5084463;28;20450;-74
2021/06/06 12:22:39;;;;;;;1.87;1.77;;;;;;;;;;5081429;28;20465;-74
2021/06/06 12:25:14;;;;;;;1.80;1.70;;;;;;;;;;5080000;28;20417;-74
2021/06/06 12:27:46;;;;;;;2.03;1.60;;;;;;;;;;5078918;28;20495;-74
2021/06/06 12:30:26;;;;;;;2.43;2.30;;;;;;;;;;5081512;28;20440;-74
2021/06/06 12:33:06;;;;;;;3.33;2.87;;;;;;;;;;5083014;28;20411;-73
2021/06/06 12:35:35;;;;;;;1.77;1.67;;;;;;;;;;5077551;28;20433;-76
2021/06/06 12:38:03;;;;;;;3.40;1.47;;;;;;;;;;5077255;28;20413;-73
2021/06/06 12:40:31;;;;;;;2.13;1.80;;;;;;;;;;5075396;28;20419;-74
2021/06/06 12:42:59;;;;;;;1.93;1.50;;;;;;;;;;5078417;28;20460;-73
2021/06/06 12:45:26;;;;;;;1.60;1.50;;;;;;;;;;5082539;28;20434;-73
2021/06/06 12:48:03;;;;;;;1.50;1.40;;;;;;;;;;5082214;28;20486;-73
2021/06/06 12:50:31;;;;;;;1.73;1.63;;;;;;;;;;5082640;28;20445;-74
2021/06/06 12:52:59;;;;;;;2.27;1.33;;;;;;;;;;5082080;28;20450;-75
2021/06/06 12:55:25;;;;;;;1.83;1.50;;;;;;;;;;5078807;28;20511;-75
2021/06/06 12:57:57;;;;;;;4.00;3.67;;;;;;;;;;5081967;28;20426;-75
2021/06/06 13:00:37;;;;;;;4.87;4.30;;;;;;;;;;5080199;28;20446;-76
2021/06/06 13:03:04;;;;;;;1.90;1.63;;;;;;;;;;5080693;28;20576;-77
2021/06/06 13:05:41;;;;;;;1.30;1.20;;;;;;;;;;5073446;28;20430;-75
2021/06/06 13:08:08;;;;;;;1.40;1.30;;;;;;;;;;5083011;28;20532;-75
2021/06/06 13:10:41;;;;;;;2.00;1.90;;;;;;;;;;5080980;28;20439;-77
2021/06/06 13:13:20;;;;;;;2.53;2.20;;;;;;;;;;5083561;28;20458;-75
2021/06/06 13:15:47;;;;;;;1.80;1.70;;;;;;;;;;5071982;28;20500;-76
2021/06/06 13:18:19;;;;;;;1.40;1.30;;;;;;;;;;5083129;28;20442;-75
2021/06/06 13:21:04;;;;;;;3.27;1.70;;;;;;;;;;5082389;28;20488;-75
2021/06/06 13:23:33;;;;;;;1.70;1.60;;;;;;;;;;5085689;28;20424;-74
2021/06/06 13:26:05;;;;;;;2.40;1.40;;;;;;;;;;5082756;28;20481;-74
2021/06/06 13:28:32;;;;;;;2.13;1.73;;;;;;;;;;5079208;28;20559;-75
2021/06/06 13:31:17;;;;;;;1.70;1.60;;;;;;;;;;5080932;28;20441;-75
2021/06/06 13:33:43;;;;;;;2.20;1.83;;;;;;;;;;5081437;28;20457;-76
2021/06/06 13:36:11;;;;;;;1.80;1.70;;;;;;;;;;5080374;28;20830;-75
2021/06/06 13:38:37;;;;;;;2.50;1.40;;;;;;;;;;5084423;28;20410;-75
2021/06/06 13:41:05;;;;;;;2.03;1.70;;;;;;;;;;5081111;28;20425;-75
2021/06/06 13:43:31;;;;;;;2.17;1.70;;;;;;;;;;5080743;28;20909;-75
2021/06/06 13:45:57;;;;;;;1.50;1.40;;;;;;;;;;5081006;28;20770;-75
2021/06/06 13:48:24;;;;;;;4.50;2.07;;;;;;;;;;5082054;28;20716;-75
2021/06/06 13:50:51;;;;;;;1.27;1.17;;;;;;;;;;5082150;28;20400;-77
2021/06/06 13:53:17;;;;;;;2.03;1.20;;;;;;;;;;5098549;28;20417;-76
2021/06/06 13:55:43;;;;;;;1.83;1.40;;;;;;;;;;5080821;28;20966;-78
2021/06/06 13:58:09;;;;;;;1.77;1.53;;;;;;;;;;5080501;28;20434;-77
2021/06/06 14:00:37;;;;;;;3.00;1.73;;;;;;;;;;5080552;28;20654;-76
2021/06/06 14:03:04;;;;;;;2.23;1.50;;;;;;;;;;5081931;28;20491;-75
2021/06/06 14:05:31;;;;;;;7.03;1.80;;;;;;;;;;5082921;28;20427;-74
2021/06/06 14:07:57;;;;;;;1.57;1.47;;;;;;;;;;5080655;28;20402;-74
2021/06/06 14:10:25;;;;;;;2.90;1.50;;;;;;;;;;5080119;28;20417;-74
2021/06/06 14:12:52;;;;;;;1.60;1.47;;;;;;;;;;5078921;28;20434;-75
2021/06/06 14:15:19;;;;;;;1.40;1.30;;;;;;;;;;5081342;28;20403;-74
2021/06/06 14:17:46;;;;;;;2.30;1.83;;;;;;;;;;5082170;28;21017;-74
2021/06/06 14:20:13;;;;;;;1.77;1.67;;;;;;;;;;5082608;28;20513;-74
2021/06/06 14:22:39;;;;;;;1.73;1.30;;;;;;;;;;5078811;28;20465;-75
2021/06/06 14:25:07;;;;;;;2.00;1.77;;;;;;;;;;5079062;28;20765;-74
2021/06/06 14:27:33;;;;;;;1.50;1.40;;;;;;;;;;5079576;28;20469;-74
2021/06/06 14:29:59;;;;;;;1.70;1.60;;;;;;;;;;5080571;28;20442;-75
2021/06/06 14:32:25;;;;;;;1.53;1.43;;;;;;;;;;5082594;28;20396;-74
2021/06/06 14:34:51;;;;;;;2.93;1.30;;;;;;;;;;5079896;28;20455;-74
2021/06/06 14:37:17;;;;;;;1.80;1.70;;;;;;;;;;5081731;28;20439;-74
2021/06/06 14:39:43;;;;;;;4.60;1.73;;;;;;;;;;5095591;28;20434;-74
2021/06/06 14:42:09;;;;;;;1.40;1.30;;;;;;;;;;5079074;28;20479;-75
2021/06/06 14:44:35;;;;;;;1.60;1.50;;;;;;;;;;5084526;28;20393;-74
2021/06/06 14:47:01;;;;;;;1.30;1.20;;;;;;;;;;5080518;28;20466;-74
2021/06/06 14:49:27;;;;;;;1.77;1.30;;;;;;;;;;5079508;28;20485;-79
2021/06/06 14:51:53;;;;;;;1.90;1.80;;;;;;;;;;5079615;28;20447;-74
2021/06/06 14:54:20;;;;;;;1.90;1.80;;;;;;;;;;5079945;28;20493;-75